Time;durP1;ratioP1;P1;durP2;ratioP2;P2;SDS_P1;SDS_P2;PMS_P1;PMS_P2;Temp;Humidity;BMP_temperature;BMP_pressure;BME280_temperature;BME280_humidity;BME280_pressure;Samples;Min_cycle;Max_cycle;Signal;HPM_P1;HPM_P2
2021/10/12 00:00:43;;;;;;;;;;;24.50;35.60;;;;;;484205;246;968;-74
2021/10/12 00:02:44;;;;;;;;;;;24.60;35.40;;;;;;484119;246;1225;-74
2021/10/12 00:04:45;;;;;;;;;;;24.80;35.40;;;;;;484245;246;1151;-74
2021/10/12 00:06:47;;;;;;;;;;;24.40;35.90;;;;;;484210;246;1221;-74
2021/10/12 00:08:48;;;;;;;;;;;24.70;35.40;;;;;;484261;246;1035;-74
2021/10/12 00:10:50;;;;;;;;;;;24.70;35.60;;;;;;484160;246;1223;-74
2021/10/12 00:12:51;;;;;;;;;;;24.90;35.20;;;;;;484116;246;1076;-74
2021/10/12 00:14:52;;;;;;;;;;;24.50;35.60;;;;;;484177;246;970;-74
2021/10/12 00:16:54;;;;;;;;;;;24.80;35.50;;;;;;484157;246;2133;-74
2021/10/12 00:18:55;;;;;;;;;;;24.80;35.30;;;;;;484259;246;1093;-74
2021/10/12 00:20:56;;;;;;;;;;;24.70;35.50;;;;;;484110;246;1124;-74
2021/10/12 00:22:58;;;;;;;;;;;24.70;35.60;;;;;;484172;246;1174;-74
2021/10/12 00:24:59;;;;;;;;;;;24.90;35.50;;;;;;484262;246;1161;-74
2021/10/12 00:27:00;;;;;;;;;;;24.90;35.30;;;;;;484142;246;1170;-74
2021/10/12 00:29:02;;;;;;;;;;;24.60;35.70;;;;;;484331;246;1117;-74
2021/10/12 00:31:03;;;;;;;;;;;24.80;35.40;;;;;;484209;242;1152;-74
2021/10/12 00:33:04;;;;;;;;;;;24.90;35.50;;;;;;484200;246;1173;-74
2021/10/12 00:35:06;;;;;;;;;;;24.90;35.30;;;;;;484223;246;1188;-74
2021/10/12 00:37:07;;;;;;;;;;;25.00;35.20;;;;;;484119;246;2120;-74
2021/10/12 00:39:08;;;;;;;;;;;25.10;35.20;;;;;;484193;246;1128;-74
2021/10/12 00:41:10;;;;;;;;;;;25.00;35.20;;;;;;484151;246;955;-74
2021/10/12 00:43:11;;;;;;;;;;;25.10;35.30;;;;;;484148;246;1135;-74
2021/10/12 00:45:12;;;;;;;;;;;25.10;35.20;;;;;;484168;246;1094;-74
2021/10/12 00:47:14;;;;;;;;;;;25.20;35.20;;;;;;484132;246;1113;-74
2021/10/12 00:49:15;;;;;;;;;;;25.30;35.10;;;;;;484180;246;1002;-74
2021/10/12 00:51:16;;;;;;;;;;;25.30;35.10;;;;;;484185;246;1194;-74
2021/10/12 00:53:18;;;;;;;;;;;25.20;35.10;;;;;;484199;246;1158;-74
2021/10/12 00:55:19;;;;;;;;;;;25.20;35.10;;;;;;484173;246;951;-74
2021/10/12 00:57:20;;;;;;;;;;;25.40;34.90;;;;;;484149;246;2133;-74
2021/10/12 00:59:21;;;;;;;;;;;25.20;35.00;;;;;;484162;246;1097;-74
2021/10/12 01:01:23;;;;;;;;;;;25.40;35.00;;;;;;484126;246;1206;-74
2021/10/12 01:03:24;;;;;;;;;;;25.20;35.10;;;;;;484221;233;1486;-74
2021/10/12 01:05:25;;;;;;;;;;;25.50;34.90;;;;;;484184;246;955;-74
2021/10/12 01:07:27;;;;;;;;;;;25.50;34.90;;;;;;484133;246;1128;-74
2021/10/12 01:09:28;;;;;;;;;;;25.40;34.80;;;;;;484170;246;1091;-74
2021/10/12 01:11:30;;;;;;;;;;;25.50;34.80;;;;;;484127;246;1174;-74
2021/10/12 01:13:31;;;;;;;;;;;25.50;34.90;;;;;;484098;246;1321;-74
2021/10/12 01:15:32;;;;;;;;;;;25.40;34.80;;;;;;484155;246;985;-74
2021/10/12 01:17:33;;;;;;;;;;;25.40;35.20;;;;;;484162;242;2195;-74
2021/10/12 01:19:35;;;;;;;;;;;24.60;35.80;;;;;;484187;246;1006;-74
2021/10/12 01:21:36;;;;;;;;;;;25.10;35.40;;;;;;484102;243;1231;-74
2021/10/12 01:23:38;;;;;;;;;;;24.90;35.70;;;;;;484311;246;1040;-74
2021/10/12 01:25:39;;;;;;;;;;;24.70;35.80;;;;;;484196;246;1132;-74
2021/10/12 01:27:40;;;;;;;;;;;24.60;35.80;;;;;;484200;246;1129;-74
2021/10/12 01:29:41;;;;;;;;;;;24.80;36.00;;;;;;484226;246;960;-74
2021/10/12 01:31:43;;;;;;;;;;;24.50;35.80;;;;;;484063;246;1153;-73
2021/10/12 01:33:44;;;;;;;;;;;24.80;36.10;;;;;;484227;246;1174;-74
2021/10/12 01:35:50;;;;;;;;;;;24.80;35.90;;;;;;484110;246;1092;-73
2021/10/12 01:37:47;;;;;;;;;;;24.60;36.00;;;;;;483870;246;2120;-73
2021/10/12 01:39:48;;;;;;;;;;;25.10;35.50;;;;;;484191;246;1064;-73
2021/10/12 01:41:49;;;;;;;;;;;24.80;35.70;;;;;;484100;246;1155;-73
2021/10/12 01:43:51;;;;;;;;;;;24.50;36.10;;;;;;484253;246;986;-73
2021/10/12 01:45:52;;;;;;;;;;;24.50;36.10;;;;;;484164;246;987;-73
2021/10/12 01:47:54;;;;;;;;;;;24.80;35.90;;;;;;484237;246;1170;-73
2021/10/12 01:49:55;;;;;;;;;;;24.30;36.30;;;;;;484174;246;951;-74
2021/10/12 01:51:56;;;;;;;;;;;24.60;36.00;;;;;;484145;246;966;-74
2021/10/12 01:53:58;;;;;;;;;;;24.80;35.80;;;;;;484157;246;1153;-74
2021/10/12 01:55:59;;;;;;;;;;;24.60;36.00;;;;;;484121;246;1120;-74
2021/10/12 01:58:00;;;;;;;;;;;24.60;36.00;;;;;;484220;246;2109;-74
2021/10/12 02:00:02;;;;;;;;;;;24.50;36.00;;;;;;484185;246;965;-74
2021/10/12 02:02:03;;;;;;;;;;;24.50;36.20;;;;;;484150;246;1105;-74
2021/10/12 02:04:04;;;;;;;;;;;24.30;36.10;;;;;;484113;246;1146;-74
2021/10/12 02:06:06;;;;;;;;;;;24.70;35.90;;;;;;484156;246;1157;-74
2021/10/12 02:08:07;;;;;;;;;;;24.50;36.20;;;;;;484208;246;1243;-74
2021/10/12 02:10:08;;;;;;;;;;;24.50;36.10;;;;;;484209;246;1054;-74
2021/10/12 02:12:10;;;;;;;;;;;24.50;36.30;;;;;;484146;246;1106;-74
2021/10/12 02:14:11;;;;;;;;;;;24.80;35.90;;;;;;484160;246;999;-74
2021/10/12 02:16:12;;;;;;;;;;;25.10;35.30;;;;;;484188;246;1144;-74
2021/10/12 02:18:14;;;;;;;;;;;25.20;35.10;;;;;;484224;246;2188;-74
2021/10/12 02:20:15;;;;;;;;;;;25.30;34.90;;;;;;484212;246;1165;-74
2021/10/12 02:22:16;;;;;;;;;;;25.10;35.10;;;;;;484197;246;1151;-74
2021/10/12 02:24:18;;;;;;;;;;;25.10;35.20;;;;;;484210;246;1152;-74
2021/10/12 02:26:19;;;;;;;;;;;25.20;35.10;;;;;;484192;246;1308;-74
2021/10/12 02:28:20;;;;;;;;;;;25.20;34.90;;;;;;484135;246;971;-74
2021/10/12 02:30:22;;;;;;;;;;;25.20;35.00;;;;;;484173;246;953;-74
2021/10/12 02:32:23;;;;;;;;;;;25.10;35.00;;;;;;484124;246;1167;-74
2021/10/12 02:34:24;;;;;;;;;;;25.10;35.10;;;;;;484221;246;1289;-74
2021/10/12 02:36:26;;;;;;;;;;;25.20;35.10;;;;;;484126;246;1116;-74
2021/10/12 02:38:27;;;;;;;;;;;25.20;35.10;;;;;;484189;246;2188;-74
2021/10/12 02:40:28;;;;;;;;;;;25.30;35.00;;;;;;484189;246;1119;-74
2021/10/12 02:42:30;;;;;;;;;;;25.20;35.10;;;;;;484164;246;1111;-74
2021/10/12 02:44:31;;;;;;;;;;;25.10;35.10;;;;;;484224;246;1053;-74
2021/10/12 02:46:32;;;;;;;;;;;25.20;34.90;;;;;;484198;246;1101;-74
2021/10/12 02:48:34;;;;;;;;;;;25.30;34.90;;;;;;484113;246;1136;-74
2021/10/12 02:50:35;;;;;;;;;;;25.40;34.80;;;;;;484138;246;945;-74
2021/10/12 02:52:36;;;;;;;;;;;25.30;34.80;;;;;;484148;246;1128;-74
2021/10/12 02:54:38;;;;;;;;;;;25.20;35.00;;;;;;484260;246;957;-74
2021/10/12 02:56:39;;;;;;;;;;;25.30;34.90;;;;;;484239;239;1219;-74
2021/10/12 02:58:40;;;;;;;;;;;25.30;35.00;;;;;;484235;246;2192;-74
2021/10/12 03:00:42;;;;;;;;;;;25.30;34.90;;;;;;484170;246;999;-74
2021/10/12 03:02:43;;;;;;;;;;;25.40;34.80;;;;;;484231;246;1195;-73
2021/10/12 03:04:44;;;;;;;;;;;25.40;34.80;;;;;;484313;246;1152;-73
2021/10/12 03:06:45;;;;;;;;;;;25.30;34.80;;;;;;484144;242;1190;-74
2021/10/12 03:08:47;;;;;;;;;;;25.30;34.80;;;;;;484244;246;949;-74
2021/10/12 03:10:48;;;;;;;;;;;25.30;35.00;;;;;;484193;246;1210;-74
2021/10/12 03:12:49;;;;;;;;;;;25.30;34.80;;;;;;484232;246;1200;-74
2021/10/12 03:14:51;;;;;;;;;;;25.40;34.70;;;;;;484247;246;1055;-74
2021/10/12 03:16:52;;;;;;;;;;;25.20;34.90;;;;;;484124;242;1153;-74
2021/10/12 03:18:53;;;;;;;;;;;24.80;35.20;;;;;;484207;246;2136;-74
2021/10/12 03:20:55;;;;;;;;;;;25.00;35.40;;;;;;484189;246;1210;-74
2021/10/12 03:22:56;;;;;;;;;;;24.80;35.20;;;;;;484209;246;1309;-74
2021/10/12 03:24:57;;;;;;;;;;;24.70;35.60;;;;;;484195;246;1048;-74
2021/10/12 03:26:59;;;;;;;;;;;24.70;35.50;;;;;;484191;246;1100;-74
2021/10/12 03:29:00;;;;;;;;;;;24.90;35.40;;;;;;484165;246;1090;-73
2021/10/12 03:31:01;;;;;;;;;;;25.00;35.40;;;;;;484099;239;1207;-73
2021/10/12 03:33:03;;;;;;;;;;;24.90;35.50;;;;;;484171;246;1125;-73
2021/10/12 03:35:04;;;;;;;;;;;25.00;35.30;;;;;;484217;246;1174;-74
2021/10/12 03:37:05;;;;;;;;;;;24.90;35.20;;;;;;484127;246;1148;-73
2021/10/12 03:39:07;;;;;;;;;;;25.00;35.10;;;;;;484176;246;2105;-73
2021/10/12 03:41:08;;;;;;;;;;;24.90;35.30;;;;;;484135;246;947;-73
2021/10/12 03:43:09;;;;;;;;;;;25.00;35.20;;;;;;484188;246;1060;-73
2021/10/12 03:45:11;;;;;;;;;;;24.70;35.50;;;;;;484215;246;956;-73
2021/10/12 03:47:12;;;;;;;;;;;24.90;35.20;;;;;;484177;246;1047;-74
2021/10/12 03:49:13;;;;;;;;;;;24.90;35.20;;;;;;484179;246;1141;-74
2021/10/12 03:51:15;;;;;;;;;;;24.70;35.60;;;;;;484189;246;1082;-73
2021/10/12 03:53:16;;;;;;;;;;;24.60;35.40;;;;;;484170;246;981;-74
2021/10/12 03:55:17;;;;;;;;;;;24.80;35.50;;;;;;484169;246;993;-74
2021/10/12 03:57:19;;;;;;;;;;;24.60;35.60;;;;;;484173;246;965;-74
2021/10/12 03:59:20;;;;;;;;;;;24.60;35.60;;;;;;484186;246;2125;-74
2021/10/12 04:01:21;;;;;;;;;;;24.70;35.60;;;;;;484059;246;1073;-73
2021/10/12 04:03:23;;;;;;;;;;;24.80;35.30;;;;;;484200;246;972;-73
2021/10/12 04:05:24;;;;;;;;;;;24.70;35.50;;;;;;484147;246;1281;-73
2021/10/12 04:07:27;;;;;;;;;;;25.10;35.10;;;;;;484183;246;1107;-73
2021/10/12 04:09:27;;;;;;;;;;;25.00;35.10;;;;;;484074;246;1433;-73
2021/10/12 04:11:28;;;;;;;;;;;25.10;35.00;;;;;;484196;246;1141;-74
2021/10/12 04:13:29;;;;;;;;;;;25.00;35.00;;;;;;484071;246;957;-74
2021/10/12 04:15:31;;;;;;;;;;;25.00;35.00;;;;;;483957;246;1205;-74
2021/10/12 04:17:32;;;;;;;;;;;25.10;34.90;;;;;;483996;246;1208;-74
2021/10/12 04:19:33;;;;;;;;;;;25.10;34.90;;;;;;483996;246;2145;-74
2021/10/12 04:21:35;;;;;;;;;;;25.10;34.90;;;;;;483987;246;1141;-74
2021/10/12 04:23:37;;;;;;;;;;;25.20;34.80;;;;;;484034;246;914;-74
2021/10/12 04:25:39;;;;;;;;;;;25.20;34.70;;;;;;483890;246;1371;-74
2021/10/12 04:27:39;;;;;;;;;;;25.20;34.80;;;;;;483872;246;1325;-74
2021/10/12 04:29:40;;;;;;;;;;;25.30;34.70;;;;;;484063;246;1111;-74
2021/10/12 04:31:41;;;;;;;;;;;25.40;34.80;;;;;;483936;246;1134;-74
2021/10/12 04:33:43;;;;;;;;;;;25.30;34.70;;;;;;483917;246;1112;-74
2021/10/12 04:35:44;;;;;;;;;;;25.20;34.80;;;;;;483877;242;1194;-74
2021/10/12 04:37:45;;;;;;;;;;;25.20;34.90;;;;;;483859;246;1025;-74
2021/10/12 04:39:47;;;;;;;;;;;25.30;34.80;;;;;;483832;246;2125;-74
2021/10/12 04:41:49;;;;;;;;;;;25.20;34.90;;;;;;483690;246;1159;-74
2021/10/12 04:43:49;;;;;;;;;;;25.20;34.90;;;;;;483746;246;1475;-74
2021/10/12 04:45:51;;;;;;;;;;;25.30;34.80;;;;;;483794;246;1228;-74
2021/10/12 04:47:52;;;;;;;;;;;25.20;34.80;;;;;;483816;246;1203;-74
2021/10/12 04:49:54;;;;;;;;;;;25.30;34.80;;;;;;483818;246;1184;-74
2021/10/12 04:51:55;;;;;;;;;;;25.30;34.70;;;;;;483770;246;1025;-74
2021/10/12 04:53:56;;;;;;;;;;;25.20;34.80;;;;;;483782;246;1120;-74
2021/10/12 04:55:58;;;;;;;;;;;25.20;34.90;;;;;;483842;246;1421;-74
2021/10/12 04:57:59;;;;;;;;;;;25.20;34.90;;;;;;483697;246;2192;-74
2021/10/12 05:00:00;;;;;;;;;;;25.30;34.90;;;;;;483794;246;1161;-74
2021/10/12 05:02:02;;;;;;;;;;;25.30;34.80;;;;;;483780;246;1057;-74
2021/10/12 05:04:03;;;;;;;;;;;25.20;34.70;;;;;;483701;246;1007;-74
2021/10/12 05:06:04;;;;;;;;;;;25.40;34.80;;;;;;483766;246;1281;-73
2021/10/12 05:08:06;;;;;;;;;;;25.30;34.80;;;;;;483783;246;964;-73
2021/10/12 05:10:07;;;;;;;;;;;25.40;34.70;;;;;;483820;246;1040;-74
2021/10/12 05:12:08;;;;;;;;;;;25.40;34.70;;;;;;483736;246;1251;-74
2021/10/12 05:14:10;;;;;;;;;;;25.40;34.60;;;;;;483735;246;1066;-74
2021/10/12 05:16:12;;;;;;;;;;;25.40;34.70;;;;;;483588;246;1168;-74
2021/10/12 05:18:18;;;;;;;;;;;25.40;34.80;;;;;;483571;246;2187;-74
2021/10/12 05:20:14;;;;;;;;;;;25.40;34.70;;;;;;483171;246;1384;-73
2021/10/12 05:22:15;;;;;;;;;;;25.20;34.90;;;;;;483667;246;1217;-73
2021/10/12 05:24:16;;;;;;;;;;;25.30;34.90;;;;;;483808;246;977;-73
2021/10/12 05:26:18;;;;;;;;;;;25.40;34.80;;;;;;483720;246;1212;-73
2021/10/12 05:28:19;;;;;;;;;;;25.20;34.90;;;;;;483712;246;1015;-74
2021/10/12 05:30:24;;;;;;;;;;;25.40;34.90;;;;;;483628;246;1120;-73
2021/10/12 05:32:22;;;;;;;;;;;25.50;34.70;;;;;;483511;246;1363;-74
2021/10/12 05:34:23;;;;;;;;;;;25.10;34.80;;;;;;483624;246;1006;-74
2021/10/12 05:36:24;;;;;;;;;;;25.20;35.10;;;;;;483521;246;1226;-73
2021/10/12 05:38:26;;;;;;;;;;;24.90;35.50;;;;;;483585;246;2199;-74
2021/10/12 05:40:27;;;;;;;;;;;24.70;35.50;;;;;;483588;246;1185;-74
2021/10/12 05:42:28;;;;;;;;;;;24.70;35.80;;;;;;483541;246;1117;-74
2021/10/12 05:44:30;;;;;;;;;;;24.60;35.60;;;;;;483669;246;1133;-74
2021/10/12 05:46:31;;;;;;;;;;;24.80;35.70;;;;;;483656;239;1256;-74
2021/10/12 05:48:32;;;;;;;;;;;25.00;35.50;;;;;;483515;246;1099;-74
2021/10/12 05:50:34;;;;;;;;;;;24.60;35.80;;;;;;483359;246;1364;-74
2021/10/12 05:52:37;;;;;;;;;;;24.90;35.50;;;;;;483522;246;1617;-74
2021/10/12 05:54:43;;;;;;;;;;;24.50;35.80;;;;;;483509;246;1291;-74
2021/10/12 05:56:41;;;;;;;;;;;24.70;35.80;;;;;;483011;246;1383;-74
2021/10/12 05:58:43;;;;;;;;;;;24.80;35.70;;;;;;483631;246;2192;-73
2021/10/12 06:00:44;;;;;;;;;;;24.60;36.00;;;;;;483543;246;1507;-73
2021/10/12 06:02:45;;;;;;;;;;;24.70;35.50;;;;;;483563;246;1107;-73
2021/10/12 06:04:47;;;;;;;;;;;24.80;35.70;;;;;;483421;246;993;-73
2021/10/12 06:06:48;;;;;;;;;;;24.80;35.70;;;;;;483437;246;1214;-73
2021/10/12 06:08:49;;;;;;;;;;;24.80;35.70;;;;;;483358;246;1136;-73
2021/10/12 06:10:51;;;;;;;;;;;24.70;35.60;;;;;;483345;246;1214;-73
2021/10/12 06:12:52;;;;;;;;;;;24.50;35.90;;;;;;483316;246;1243;-73
2021/10/12 06:14:53;;;;;;;;;;;24.80;35.50;;;;;;483482;246;1059;-73
2021/10/12 06:16:55;;;;;;;;;;;24.70;35.70;;;;;;483411;246;1152;-73
2021/10/12 06:18:56;;;;;;;;;;;24.70;35.70;;;;;;483416;246;2125;-73
2021/10/12 06:21:00;;;;;;;;;;;24.80;35.40;;;;;;483267;246;1159;-74
2021/10/12 06:23:01;;;;;;;;;;;24.90;35.80;;;;;;483300;246;1054;-73
2021/10/12 06:25:03;;;;;;;;;;;24.50;36.00;;;;;;483337;246;970;-74
2021/10/12 06:27:04;;;;;;;;;;;24.80;35.70;;;;;;483283;246;1549;-74
2021/10/12 06:29:06;;;;;;;;;;;24.50;35.90;;;;;;483422;246;1015;-74
2021/10/12 06:31:07;;;;;;;;;;;24.60;35.80;;;;;;483270;246;1016;-74
2021/10/12 06:33:08;;;;;;;;;;;24.80;35.60;;;;;;483303;246;1205;-74
2021/10/12 06:35:09;;;;;;;;;;;25.20;35.10;;;;;;483083;246;1041;-74
2021/10/12 06:37:11;;;;;;;;;;;25.20;35.10;;;;;;483155;246;1284;-74
2021/10/12 06:39:12;;;;;;;;;;;25.20;35.00;;;;;;483355;246;2125;-74
2021/10/12 06:41:14;;;;;;;;;;;25.20;35.00;;;;;;483304;246;1060;-74
2021/10/12 06:43:15;;;;;;;;;;;25.10;35.20;;;;;;483306;246;972;-74
2021/10/12 06:45:16;;;;;;;;;;;25.20;35.10;;;;;;483207;246;998;-74
2021/10/12 06:47:18;;;;;;;;;;;25.30;35.00;;;;;;483224;246;1147;-74
2021/10/12 06:49:19;;;;;;;;;;;25.30;34.90;;;;;;483270;246;1039;-74
2021/10/12 06:51:20;;;;;;;;;;;25.30;35.00;;;;;;483129;246;1110;-74
2021/10/12 06:53:22;;;;;;;;;;;25.40;34.90;;;;;;483538;246;934;-74
2021/10/12 06:55:23;;;;;;;;;;;25.30;34.90;;;;;;483249;246;970;-74
2021/10/12 06:57:24;;;;;;;;;;;25.40;34.80;;;;;;483378;246;1295;-74
2021/10/12 06:59:26;;;;;;;;;;;25.20;35.00;;;;;;483145;246;2168;-74
2021/10/12 07:01:27;;;;;;;;;;;24.70;35.70;;;;;;483010;242;1194;-74
2021/10/12 07:03:28;;;;;;;;;;;24.60;36.10;;;;;;482961;246;1047;-73
2021/10/12 07:05:30;;;;;;;;;;;24.60;35.80;;;;;;482885;246;1030;-74
2021/10/12 07:07:31;;;;;;;;;;;24.60;35.80;;;;;;482998;246;1176;-74
2021/10/12 07:09:32;;;;;;;;;;;24.90;35.80;;;;;;483063;246;1016;-74
2021/10/12 07:11:34;;;;;;;;;;;25.00;35.60;;;;;;483038;246;1134;-74
2021/10/12 07:13:35;;;;;;;;;;;24.90;35.60;;;;;;483089;246;1075;-74
2021/10/12 07:15:36;;;;;;;;;;;24.60;36.00;;;;;;483083;246;1222;-73
2021/10/12 07:17:39;;;;;;;;;;;24.70;35.70;;;;;;483100;246;1117;-73
2021/10/12 07:19:40;;;;;;;;;;;24.50;36.20;;;;;;483191;246;2180;-74
2021/10/12 07:21:41;;;;;;;;;;;24.80;35.90;;;;;;483161;246;1120;-74
2021/10/12 07:23:43;;;;;;;;;;;24.80;35.60;;;;;;483126;246;1144;-74
2021/10/12 07:25:44;;;;;;;;;;;24.70;36.10;;;;;;482853;246;1121;-74
2021/10/12 07:27:46;;;;;;;;;;;24.90;35.60;;;;;;482776;246;1146;-74
2021/10/12 07:29:48;;;;;;;;;;;24.80;35.90;;;;;;482951;246;1158;-73
2021/10/12 07:31:48;;;;;;;;;;;24.80;35.80;;;;;;482851;246;1332;-73
2021/10/12 07:33:50;;;;;;;;;;;24.70;35.70;;;;;;482474;246;1391;-74
2021/10/12 07:35:51;;;;;;;;;;;24.60;35.90;;;;;;482895;246;1130;-74
2021/10/12 07:37:54;;;;;;;;;;;24.80;35.90;;;;;;482993;246;1125;-73
2021/10/12 07:39:53;;;;;;;;;;;24.80;36.00;;;;;;482771;246;2183;-73
2021/10/12 07:41:55;;;;;;;;;;;24.60;35.90;;;;;;482975;246;1311;-73
2021/10/12 07:43:56;;;;;;;;;;;24.80;35.90;;;;;;483138;246;1018;-74
2021/10/12 07:45:57;;;;;;;;;;;24.70;35.90;;;;;;483120;246;1214;-74
2021/10/12 07:47:59;;;;;;;;;;;24.90;35.80;;;;;;483202;246;1146;-74
2021/10/12 07:50:01;;;;;;;;;;;24.60;35.90;;;;;;482743;246;1061;-73
2021/10/12 07:52:06;;;;;;;;;;;24.70;36.00;;;;;;482787;246;1365;-73
2021/10/12 07:54:08;;;;;;;;;;;24.80;35.80;;;;;;482797;246;1255;-73
2021/10/12 07:56:08;;;;;;;;;;;24.90;35.70;;;;;;482554;239;1479;-73
2021/10/12 07:58:06;;;;;;;;;;;25.10;35.50;;;;;;482791;246;1399;-73
2021/10/12 08:00:09;;;;;;;;;;;24.90;35.50;;;;;;483079;246;2256;-73
2021/10/12 08:02:11;;;;;;;;;;;25.00;35.80;;;;;;483067;246;1503;-73
2021/10/12 08:04:10;;;;;;;;;;;24.80;35.80;;;;;;482774;246;1484;-74
2021/10/12 08:06:11;;;;;;;;;;;25.00;35.90;;;;;;482867;246;989;-73
2021/10/12 08:08:12;;;;;;;;;;;24.60;36.10;;;;;;483018;246;1088;-73
2021/10/12 08:10:14;;;;;;;;;;;24.80;36.00;;;;;;483046;246;1072;-73
2021/10/12 08:12:15;;;;;;;;;;;24.70;36.10;;;;;;482774;246;1067;-73
2021/10/12 08:14:20;;;;;;;;;;;24.90;36.10;;;;;;483032;246;1045;-74
2021/10/12 08:16:24;;;;;;;;;;;24.40;36.40;;;;;;482592;246;1320;-74
2021/10/12 08:18:24;;;;;;;;;;;24.30;36.80;;;;;;482832;246;1345;-74
2021/10/12 08:20:22;;;;;;;;;;;24.50;36.60;;;;;;482705;246;2184;-74
2021/10/12 08:22:23;;;;;;;;;;;24.60;36.60;;;;;;482905;246;1073;-74
2021/10/12 08:24:25;;;;;;;;;;;24.50;36.50;;;;;;483225;246;1211;-73
2021/10/12 08:26:26;;;;;;;;;;;24.80;36.30;;;;;;483052;246;1061;-74
2021/10/12 08:28:27;;;;;;;;;;;24.60;36.50;;;;;;483126;246;1111;-73
2021/10/12 08:30:29;;;;;;;;;;;24.70;36.30;;;;;;483091;246;1449;-73
2021/10/12 08:32:30;;;;;;;;;;;24.90;36.10;;;;;;482981;246;1246;-73
2021/10/12 08:34:31;;;;;;;;;;;24.80;36.30;;;;;;482898;246;1091;-74
2021/10/12 08:36:33;;;;;;;;;;;24.80;36.50;;;;;;483075;246;1190;-73
2021/10/12 08:38:34;;;;;;;;;;;24.80;36.10;;;;;;483078;246;1325;-74
2021/10/12 08:40:35;;;;;;;;;;;24.60;36.50;;;;;;483031;246;2128;-73
2021/10/12 08:42:37;;;;;;;;;;;24.50;36.60;;;;;;482981;246;1146;-74
2021/10/12 08:44:38;;;;;;;;;;;24.40;36.70;;;;;;483097;246;1035;-74
2021/10/12 08:46:40;;;;;;;;;;;24.70;36.50;;;;;;483116;246;1058;-74
2021/10/12 08:48:41;;;;;;;;;;;24.50;36.50;;;;;;483041;246;1055;-74
2021/10/12 08:50:42;;;;;;;;;;;24.60;36.80;;;;;;482781;246;970;-74
2021/10/12 08:52:44;;;;;;;;;;;24.70;36.60;;;;;;482877;246;1194;-74
2021/10/12 08:54:45;;;;;;;;;;;24.70;36.40;;;;;;483144;246;1241;-73
2021/10/12 08:56:47;;;;;;;;;;;24.60;36.70;;;;;;483068;246;1120;-74
2021/10/12 08:58:48;;;;;;;;;;;24.50;36.60;;;;;;483079;246;1024;-74
2021/10/12 09:00:49;;;;;;;;;;;24.60;36.90;;;;;;482927;246;2199;-74
2021/10/12 09:02:51;;;;;;;;;;;24.70;36.70;;;;;;483041;246;1068;-73
2021/10/12 09:04:52;;;;;;;;;;;24.70;36.60;;;;;;482852;246;1031;-73
2021/10/12 09:06:53;;;;;;;;;;;24.60;36.60;;;;;;482875;246;1130;-74
2021/10/12 09:08:55;;;;;;;;;;;24.90;36.40;;;;;;483005;246;1148;-74
2021/10/12 09:10:56;;;;;;;;;;;24.80;36.50;;;;;;483084;246;1208;-74
2021/10/12 09:12:59;;;;;;;;;;;24.80;36.50;;;;;;483880;246;1034;-74
2021/10/12 09:14:59;;;;;;;;;;;24.60;36.90;;;;;;483123;246;1228;-74
2021/10/12 09:17:00;;;;;;;;;;;24.80;36.60;;;;;;483068;246;1091;-74
2021/10/12 09:19:01;;;;;;;;;;;24.70;36.70;;;;;;483113;246;1085;-73
2021/10/12 09:21:03;;;;;;;;;;;24.50;37.00;;;;;;483024;246;2121;-74
2021/10/12 09:23:04;;;;;;;;;;;24.80;36.80;;;;;;483139;246;1153;-74
2021/10/12 09:25:05;;;;;;;;;;;24.50;36.90;;;;;;483214;246;1128;-73
2021/10/12 09:27:07;;;;;;;;;;;24.50;37.00;;;;;;483178;246;1116;-73
2021/10/12 09:29:10;;;;;;;;;;;24.60;37.10;;;;;;482948;246;973;-73
2021/10/12 09:31:10;;;;;;;;;;;24.70;36.80;;;;;;483254;246;1415;-74
2021/10/12 09:33:12;;;;;;;;;;;24.70;36.70;;;;;;482956;246;993;-73
2021/10/12 09:35:13;;;;;;;;;;;24.80;36.60;;;;;;482926;246;1125;-74
2021/10/12 09:37:14;;;;;;;;;;;25.00;36.60;;;;;;482927;246;1088;-73
2021/10/12 09:39:16;;;;;;;;;;;24.60;36.90;;;;;;483047;246;1233;-74
2021/10/12 09:41:17;;;;;;;;;;;24.80;36.70;;;;;;483172;246;2133;-74
2021/10/12 09:43:18;;;;;;;;;;;24.80;36.80;;;;;;483231;246;1032;-74
2021/10/12 09:45:19;;;;;;;;;;;24.70;36.80;;;;;;483124;246;1414;-74
2021/10/12 09:47:22;;;;;;;;;;;24.70;36.90;;;;;;483171;246;1066;-73
2021/10/12 09:49:22;;;;;;;;;;;24.80;36.60;;;;;;483196;246;1423;-73
2021/10/12 09:51:23;;;;;;;;;;;24.60;37.00;;;;;;483038;239;1193;-73
2021/10/12 09:53:25;;;;;;;;;;;24.80;36.90;;;;;;483072;246;959;-74
2021/10/12 09:55:26;;;;;;;;;;;24.80;36.60;;;;;;482885;246;1184;-74
2021/10/12 09:57:30;;;;;;;;;;;24.80;36.80;;;;;;482832;246;1118;-73
2021/10/12 09:59:29;;;;;;;;;;;24.70;37.00;;;;;;483021;246;1422;-73
2021/10/12 10:01:31;;;;;;;;;;;24.60;37.00;;;;;;483068;246;2113;-73
2021/10/12 10:03:32;;;;;;;;;;;24.70;37.10;;;;;;483068;246;1040;-74
2021/10/12 10:05:33;;;;;;;;;;;24.70;36.80;;;;;;482865;246;1196;-73
2021/10/12 10:07:35;;;;;;;;;;;24.80;36.90;;;;;;483138;246;1046;-73
2021/10/12 10:09:36;;;;;;;;;;;24.80;36.80;;;;;;483414;246;1105;-73
2021/10/12 10:11:38;;;;;;;;;;;24.70;37.10;;;;;;483128;246;1101;-73
2021/10/12 10:13:40;;;;;;;;;;;24.70;36.90;;;;;;483493;246;980;-74
2021/10/12 10:15:41;;;;;;;;;;;24.60;36.90;;;;;;483185;246;1167;-74
2021/10/12 10:17:42;;;;;;;;;;;24.80;36.70;;;;;;483131;246;1103;-73
2021/10/12 10:19:43;;;;;;;;;;;24.60;37.10;;;;;;483034;246;1049;-73
2021/10/12 10:21:47;;;;;;;;;;;24.60;36.70;;;;;;483253;246;2109;-74
2021/10/12 10:23:48;;;;;;;;;;;24.80;36.80;;;;;;483094;246;958;-73
2021/10/12 10:25:49;;;;;;;;;;;24.80;37.00;;;;;;482907;246;1097;-73
2021/10/12 10:27:51;;;;;;;;;;;25.00;36.50;;;;;;483020;246;1057;-73
2021/10/12 10:29:52;;;;;;;;;;;24.80;36.70;;;;;;482996;246;1135;-73
2021/10/12 10:31:53;;;;;;;;;;;25.00;36.50;;;;;;483226;246;1148;-73
2021/10/12 10:33:55;;;;;;;;;;;24.90;36.60;;;;;;483131;246;1022;-74
2021/10/12 10:35:56;;;;;;;;;;;24.70;36.70;;;;;;483097;236;1264;-73
2021/10/12 10:37:58;;;;;;;;;;;25.00;36.50;;;;;;483021;246;1082;-74
2021/10/12 10:39:59;;;;;;;;;;;24.90;36.60;;;;;;483147;246;2191;-74
2021/10/12 10:42:00;;;;;;;;;;;25.10;36.50;;;;;;483059;246;1194;-73
2021/10/12 10:44:02;;;;;;;;;;;25.00;36.30;;;;;;483158;246;1078;-73
2021/10/12 10:46:03;;;;;;;;;;;24.80;36.70;;;;;;483174;246;1187;-73
2021/10/12 10:48:05;;;;;;;;;;;25.00;36.70;;;;;;483277;246;1074;-74
2021/10/12 10:50:06;;;;;;;;;;;25.10;36.50;;;;;;483078;246;1024;-74
2021/10/12 10:52:09;;;;;;;;;;;24.80;36.80;;;;;;483031;246;1205;-73
2021/10/12 10:54:09;;;;;;;;;;;24.90;36.60;;;;;;482998;246;1359;-73
2021/10/12 10:56:10;;;;;;;;;;;24.80;36.80;;;;;;482966;246;1176;-74
2021/10/12 10:58:12;;;;;;;;;;;24.80;36.90;;;;;;483082;246;1103;-74
2021/10/12 11:00:13;;;;;;;;;;;24.90;36.90;;;;;;482977;246;2168;-73
2021/10/12 11:02:14;;;;;;;;;;;24.70;36.90;;;;;;482814;239;1340;-73
2021/10/12 11:04:16;;;;;;;;;;;24.90;36.70;;;;;;482924;246;1076;-73
2021/10/12 11:06:17;;;;;;;;;;;24.50;37.30;;;;;;482895;246;1003;-73
2021/10/12 11:08:18;;;;;;;;;;;24.70;37.10;;;;;;483020;246;1215;-73
2021/10/12 11:10:19;;;;;;;;;;;24.40;37.20;;;;;;483091;246;1096;-74
2021/10/12 11:12:21;;;;;;;;;;;24.90;36.90;;;;;;483083;246;1229;-73
2021/10/12 11:14:22;;;;;;;;;;;24.40;37.30;;;;;;483226;246;1050;-73
2021/10/12 11:16:24;;;;;;;;;;;24.80;37.00;;;;;;483059;246;1095;-73
2021/10/12 11:18:25;;;;;;;;;;;24.80;36.70;;;;;;483135;246;1066;-74
2021/10/12 11:20:26;;;;;;;;;;;24.70;36.80;;;;;;482840;246;2184;-73
2021/10/12 11:22:28;;;;;;;;;;;24.80;36.80;;;;;;482975;246;1212;-73
2021/10/12 11:24:29;;;;;;;;;;;24.50;37.10;;;;;;482988;246;1045;-73
2021/10/12 11:26:31;;;;;;;;;;;25.00;36.50;;;;;;482830;246;1129;-73
2021/10/12 11:28:32;;;;;;;;;;;24.80;36.90;;;;;;482906;246;1139;-73
2021/10/12 11:30:34;;;;;;;;;;;24.50;37.00;;;;;;482803;246;995;-73
2021/10/12 11:32:35;;;;;;;;;;;24.80;36.80;;;;;;483048;246;1123;-73
2021/10/12 11:34:36;;;;;;;;;;;24.50;36.90;;;;;;483026;246;1052;-73
2021/10/12 11:36:38;;;;;;;;;;;24.90;36.60;;;;;;482989;246;1179;-73
2021/10/12 11:38:39;;;;;;;;;;;24.70;36.90;;;;;;483154;246;1285;-73
2021/10/12 11:40:40;;;;;;;;;;;24.80;36.40;;;;;;483165;246;2183;-73
2021/10/12 11:42:42;;;;;;;;;;;24.80;36.80;;;;;;483260;246;1111;-74
2021/10/12 11:44:43;;;;;;;;;;;24.70;36.60;;;;;;482899;246;1043;-74
2021/10/12 11:46:44;;;;;;;;;;;24.90;36.40;;;;;;482998;246;1049;-73
2021/10/12 11:48:46;;;;;;;;;;;24.80;36.40;;;;;;483163;246;1138;-73
2021/10/12 11:50:47;;;;;;;;;;;24.80;36.40;;;;;;482941;246;1238;-73
2021/10/12 11:52:48;;;;;;;;;;;24.90;36.10;;;;;;483040;246;1076;-74
2021/10/12 11:54:50;;;;;;;;;;;25.10;36.10;;;;;;482927;246;1057;-74
2021/10/12 11:56:51;;;;;;;;;;;25.00;36.00;;;;;;483078;246;1305;-73